Time;durP1;ratioP1;P1;durP2;ratioP2;P2;SDS_P1;SDS_P2;PMS_P1;PMS_P2;Temp;Humidity;BMP_temperature;BMP_pressure;BME280_temperature;BME280_humidity;BME280_pressure;Samples;Min_cycle;Max_cycle;Signal;HPM_P1;HPM_P2
2022/01/08 00:01:31;;;;;;;0.50;0.50;;;5.50;99.90;;;;;;5113056;28;20713;-73
2022/01/08 00:03:57;;;;;;;0.40;0.20;;;5.50;99.90;;;;;;5112108;28;20385;-73
2022/01/08 00:06:22;;;;;;;0.40;0.20;;;5.40;99.90;;;;;;5112090;28;20396;-72
2022/01/08 00:08:49;;;;;;;0.40;0.20;;;5.50;99.90;;;;;;5112365;28;20404;-72
2022/01/08 00:11:18;;;;;;;0.40;0.30;;;5.50;99.90;;;;;;5111905;28;20416;-73
2022/01/08 00:13:44;;;;;;;0.40;0.20;;;5.50;99.90;;;;;;5112834;28;20384;-72
2022/01/08 00:16:10;;;;;;;0.40;0.20;;;5.60;99.90;;;;;;5111846;28;20382;-72
2022/01/08 00:18:36;;;;;;;0.40;0.30;;;5.80;99.90;;;;;;5112580;28;20845;-72
2022/01/08 00:21:01;;;;;;;0.40;0.20;;;5.80;99.30;;;;;;5112291;28;20377;-72
2022/01/08 00:23:27;;;;;;;0.40;0.20;;;5.80;99.90;;;;;;5111921;28;20372;-72
2022/01/08 00:25:53;;;;;;;0.40;0.20;;;5.90;99.10;;;;;;5111932;28;20403;-72
2022/01/08 00:28:18;;;;;;;0.40;0.20;;;5.80;99.00;;;;;;5111412;28;20745;-72
2022/01/08 00:30:45;;;;;;;0.40;0.20;;;5.80;99.90;;;;;;5111736;28;20441;-72
2022/01/08 00:33:11;;;;;;;0.40;0.20;;;5.70;99.90;;;;;;5112237;28;20733;-72
2022/01/08 00:35:36;;;;;;;0.40;0.30;;;5.70;99.90;;;;;;5110652;28;20385;-72
2022/01/08 00:38:03;;;;;;;0.40;0.20;;;5.70;99.90;;;;;;5093801;28;20490;-72
2022/01/08 00:40:29;;;;;;;0.40;0.20;;;5.70;99.90;;;;;;5092849;28;20399;-73
2022/01/08 00:42:55;;;;;;;0.40;0.20;;;5.70;99.90;;;;;;5112180;28;20825;-72
2022/01/08 00:45:20;;;;;;;0.40;0.20;;;5.60;99.90;;;;;;5111358;28;20391;-72
2022/01/08 00:47:46;;;;;;;0.40;0.20;;;5.50;99.90;;;;;;5111219;28;20906;-73
2022/01/08 00:50:12;;;;;;;0.40;0.20;;;5.40;99.90;;;;;;5111556;28;20380;-72
2022/01/08 00:52:42;;;;;;;0.40;0.20;;;5.40;99.90;;;;;;5111201;28;20376;-72
2022/01/08 00:55:09;;;;;;;0.40;0.20;;;5.30;99.90;;;;;;5111829;28;20381;-72
2022/01/08 00:57:35;;;;;;;0.40;0.20;;;5.20;99.90;;;;;;5110791;28;20909;-72
2022/01/08 01:00:01;;;;;;;0.40;0.30;;;5.10;99.90;;;;;;5112035;28;20412;-72
2022/01/08 01:02:26;;;;;;;0.40;0.20;;;5.00;99.90;;;;;;5111560;28;20812;-72
2022/01/08 01:04:52;;;;;;;0.40;0.20;;;4.90;99.90;;;;;;5110783;28;20376;-73
2022/01/08 01:07:18;;;;;;;0.40;0.20;;;4.70;99.90;;;;;;5111773;28;20376;-72
2022/01/08 01:09:44;;;;;;;0.40;0.20;;;4.60;99.90;;;;;;5110674;28;20478;-74
2022/01/08 01:12:09;;;;;;;0.40;0.20;;;4.50;99.90;;;;;;5111565;28;20841;-72
2022/01/08 01:14:35;;;;;;;0.40;0.22;;;4.40;99.90;;;;;;5093105;28;20864;-71
2022/01/08 01:17:01;;;;;;;0.40;0.30;;;4.30;99.90;;;;;;5110931;28;20460;-72
2022/01/08 01:19:26;;;;;;;0.40;0.20;;;4.30;99.90;;;;;;5111116;28;20903;-72
2022/01/08 01:21:57;;;;;;;0.40;0.20;;;4.20;99.90;;;;;;5110571;28;20383;-72
2022/01/08 01:24:25;;;;;;;0.40;0.20;;;4.30;99.90;;;;;;5094001;28;20406;-73
2022/01/08 01:29:52;;;;;;;0.40;0.20;;;4.40;99.90;;;;;;5110969;28;20520;-72
2022/01/08 01:43:34;;;;;;;0.40;0.20;;;4.50;99.90;;;;;;5110172;28;20377;-73
2022/01/08 01:48:58;;;;;;;0.40;0.20;;;4.50;99.90;;;;;;5096285;27;20410;-71
2022/01/08 01:51:24;;;;;;;0.40;0.20;;;4.50;99.90;;;;;;5130701;27;20378;-72
2022/01/08 01:53:51;;;;;;;0.40;0.20;;;4.40;99.90;;;;;;5131136;28;20962;-72
2022/01/08 01:56:20;;;;;;;0.40;0.20;;;4.30;99.90;;;;;;5130499;28;20503;-72
2022/01/08 01:58:47;;;;;;;0.40;0.22;;;4.20;99.90;;;;;;5131164;28;20374;-72
2022/01/08 02:01:12;;;;;;;0.40;0.20;;;4.20;99.90;;;;;;5112214;28;20386;-73
2022/01/08 02:03:39;;;;;;;0.40;0.20;;;4.30;99.90;;;;;;5131167;28;20383;-72
2022/01/08 02:06:05;;;;;;;0.40;0.20;;;4.20;99.90;;;;;;5131126;28;20393;-72
2022/01/08 02:08:31;;;;;;;0.40;0.20;;;4.20;99.90;;;;;;5130446;28;20426;-72
2022/01/08 02:10:57;;;;;;;0.40;0.20;;;4.20;99.90;;;;;;5131343;28;20827;-72
2022/01/08 02:13:27;;;;;;;0.40;0.30;;;4.20;99.90;;;;;;5111947;28;20415;-72
2022/01/08 02:15:55;;;;;;;0.40;0.20;;;4.30;99.90;;;;;;5131265;28;20424;-72
2022/01/08 02:18:27;;;;;;;0.40;0.20;;;4.40;99.90;;;;;;5130707;28;20370;-72
2022/01/08 02:20:58;;;;;;;0.40;0.20;;;4.40;99.90;;;;;;5131202;28;20377;-71
2022/01/08 02:23:23;;;;;;;0.40;0.30;;;4.60;99.90;;;;;;5130671;28;20436;-71
2022/01/08 02:25:49;;;;;;;0.40;0.30;;;4.50;99.90;;;;;;5130845;28;20406;-71
2022/01/08 02:28:16;;;;;;;0.40;0.20;;;4.70;99.90;;;;;;5131132;28;20390;-70
2022/01/08 02:30:43;;;;;;;0.40;0.20;;;4.60;99.90;;;;;;5130292;28;20383;-72
2022/01/08 02:33:08;;;;;;;0.40;0.20;;;4.60;99.90;;;;;;5131259;28;20959;-71
2022/01/08 02:35:34;;;;;;;0.40;0.20;;;4.60;99.90;;;;;;5129517;28;20436;-71
2022/01/08 02:38:00;;;;;;;0.40;0.20;;;4.60;99.90;;;;;;5112407;28;20394;-72
2022/01/08 02:40:26;;;;;;;0.40;0.20;;;4.60;99.90;;;;;;5131021;28;20377;-71
2022/01/08 02:42:59;;;;;;;0.40;0.20;;;4.60;99.90;;;;;;5130194;28;20371;-71
2022/01/08 02:45:25;;;;;;;0.40;0.30;;;4.50;99.90;;;;;;5112437;28;20376;-72
2022/01/08 02:47:53;;;;;;;0.40;0.20;;;4.50;99.90;;;;;;5109420;28;20760;-71
2022/01/08 02:50:20;;;;;;;0.40;0.20;;;4.40;99.90;;;;;;5109792;28;20435;-71
2022/01/08 02:52:47;;;;;;;0.40;0.20;;;4.40;99.90;;;;;;5109661;28;20388;-71
2022/01/08 02:55:15;;;;;;;0.40;0.30;;;4.50;99.90;;;;;;5110380;28;20388;-71
2022/01/08 02:57:41;;;;;;;0.40;0.20;;;4.50;99.90;;;;;;5111126;28;20407;-71
2022/01/08 03:00:10;;;;;;;0.40;0.20;;;4.40;99.90;;;;;;5112822;28;20380;-72
2022/01/08 03:02:43;;;;;;;0.40;0.22;;;4.40;99.90;;;;;;5114002;28;20791;-71
2022/01/08 03:05:11;;;;;;;0.40;0.20;;;4.40;99.90;;;;;;5112959;28;21065;-71
2022/01/08 03:07:38;;;;;;;0.40;0.20;;;4.40;99.90;;;;;;5114100;28;20392;-70
2022/01/08 03:10:10;;;;;;;0.40;0.20;;;4.40;99.90;;;;;;5113180;28;20387;-71
2022/01/08 03:12:43;;;;;;;0.40;0.20;;;4.40;99.90;;;;;;5114045;28;20884;-71
2022/01/08 03:15:23;;;;;;;0.40;0.20;;;4.30;99.90;;;;;;5113014;28;20863;-72
2022/01/08 03:17:49;;;;;;;0.40;0.20;;;4.40;99.90;;;;;;5113525;28;20895;-71
2022/01/08 03:20:16;;;;;;;0.40;0.20;;;4.30;99.90;;;;;;5112656;28;20864;-72
2022/01/08 03:22:45;;;;;;;0.40;0.20;;;4.30;99.90;;;;;;5113339;28;20851;-71
2022/01/08 03:25:11;;;;;;;0.40;0.20;;;4.40;99.90;;;;;;5112746;28;20416;-72
2022/01/08 03:27:37;;;;;;;0.40;0.20;;;4.40;99.90;;;;;;5113188;28;20873;-71
2022/01/08 03:30:07;;;;;;;0.40;0.20;;;4.30;99.90;;;;;;5112848;28;20388;-71
2022/01/08 03:32:33;;;;;;;0.40;0.20;;;4.30;99.90;;;;;;5094994;28;20396;-70
2022/01/08 03:34:59;;;;;;;0.40;0.30;;;4.20;99.90;;;;;;5113478;28;20381;-71
2022/01/08 03:37:25;;;;;;;0.40;0.30;;;4.30;99.90;;;;;;5112186;28;20399;-71
2022/01/08 03:39:51;;;;;;;0.40;0.20;;;4.30;99.90;;;;;;5095072;28;20388;-72
2022/01/08 03:42:17;;;;;;;0.40;0.20;;;4.40;99.90;;;;;;5112546;28;20384;-73
2022/01/08 03:44:42;;;;;;;0.40;0.20;;;4.40;99.90;;;;;;5113055;28;20387;-72
2022/01/08 03:47:23;;;;;;;0.40;0.20;;;4.50;99.90;;;;;;5112385;28;20865;-71
2022/01/08 03:49:49;;;;;;;0.40;0.20;;;4.30;99.90;;;;;;5094775;28;20415;-72
2022/01/08 03:52:16;;;;;;;0.40;0.20;;;4.20;99.90;;;;;;5112739;28;20515;-72
2022/01/08 03:54:42;;;;;;;0.40;0.20;;;4.10;99.90;;;;;;5094186;28;20544;-70
2022/01/08 03:57:07;;;;;;;0.40;0.20;;;4.10;99.90;;;;;;5112847;28;20372;-71
2022/01/08 03:59:34;;;;;;;0.40;0.20;;;4.00;99.90;;;;;;5093483;28;20395;-71
2022/01/08 04:02:00;;;;;;;0.40;0.20;;;4.10;99.90;;;;;;5094591;28;20782;-70
2022/01/08 04:04:25;;;;;;;0.40;0.20;;;4.10;99.90;;;;;;5112860;28;20418;-71
2022/01/08 04:06:51;;;;;;;0.40;0.20;;;4.10;99.90;;;;;;5093546;28;20426;-71
2022/01/08 04:09:18;;;;;;;0.40;0.20;;;4.10;99.90;;;;;;5111910;28;20450;-71
2022/01/08 04:11:43;;;;;;;0.40;0.20;;;4.10;99.90;;;;;;5111946;28;20395;-72
2022/01/08 04:14:09;;;;;;;0.40;0.20;;;4.20;99.90;;;;;;5112479;28;20756;-71
2022/01/08 04:16:40;;;;;;;0.40;0.20;;;4.20;99.90;;;;;;5094157;28;20395;-71
2022/01/08 04:19:06;;;;;;;0.40;0.20;;;4.20;99.90;;;;;;5112724;28;20376;-72
2022/01/08 04:24:00;;;;;;;0.40;0.20;;;4.20;99.90;;;;;;5111745;28;20384;-72
2022/01/08 04:26:27;;;;;;;0.40;0.30;;;4.10;99.90;;;;;;5112394;28;20396;-72
2022/01/08 04:28:54;;;;;;;0.40;0.20;;;4.10;99.90;;;;;;5111500;28;20404;-72
2022/01/08 04:31:21;;;;;;;0.40;0.30;;;4.00;99.90;;;;;;5111897;28;20435;-71
2022/01/08 04:33:46;;;;;;;0.40;0.30;;;4.00;99.90;;;;;;5112437;28;20449;-72
2022/01/08 04:36:12;;;;;;;0.40;0.27;;;4.00;99.90;;;;;;5111612;28;20396;-72
2022/01/08 04:38:38;;;;;;;0.40;0.20;;;4.00;99.90;;;;;;5112479;28;20720;-72
2022/01/08 04:41:04;;;;;;;0.40;0.20;;;4.00;99.90;;;;;;5112099;28;20381;-72
2022/01/08 04:43:30;;;;;;;0.40;0.22;;;3.90;99.90;;;;;;5112261;28;20868;-71
2022/01/08 04:45:56;;;;;;;0.40;0.20;;;3.90;99.90;;;;;;5112546;28;20463;-72
2022/01/08 04:48:22;;;;;;;0.40;0.20;;;3.90;99.90;;;;;;5093196;28;20778;-72
2022/01/08 04:50:47;;;;;;;0.40;0.20;;;3.90;99.90;;;;;;5112374;28;20467;-72
2022/01/08 04:53:13;;;;;;;0.40;0.20;;;3.90;99.90;;;;;;5111418;28;20376;-72
2022/01/08 04:55:39;;;;;;;0.40;0.20;;;3.80;99.90;;;;;;5112005;28;20744;-71
2022/01/08 04:58:06;;;;;;;0.40;0.20;;;3.80;99.90;;;;;;5111856;28;20437;-72
2022/01/08 05:00:32;;;;;;;0.40;0.20;;;3.80;99.90;;;;;;5111285;28;20809;-72
2022/01/08 05:02:59;;;;;;;0.40;0.20;;;3.80;99.90;;;;;;5093396;28;20811;-72
2022/01/08 05:05:25;;;;;;;0.40;0.20;;;3.90;99.90;;;;;;5111072;28;20385;-72
2022/01/08 05:07:51;;;;;;;0.40;0.20;;;3.90;99.90;;;;;;5111926;28;20380;-72
2022/01/08 05:10:17;;;;;;;0.40;0.20;;;3.80;99.90;;;;;;5111746;28;20678;-71
2022/01/08 05:12:43;;;;;;;0.40;0.20;;;3.70;99.90;;;;;;5092763;28;21205;-71
2022/01/08 05:15:09;;;;;;;0.40;0.23;;;3.80;99.90;;;;;;5093183;28;20396;-71
2022/01/08 05:17:35;;;;;;;0.40;0.20;;;3.70;99.90;;;;;;5111062;28;20412;-71
2022/01/08 05:20:04;;;;;;;0.40;0.20;;;3.70;99.90;;;;;;5111829;28;20451;-71
2022/01/08 05:22:42;;;;;;;0.40;0.20;;;3.80;99.90;;;;;;5110635;28;20454;-71
2022/01/08 05:25:08;;;;;;;0.40;0.20;;;3.70;99.90;;;;;;5111473;28;20484;-71
2022/01/08 05:27:34;;;;;;;0.40;0.20;;;3.70;99.90;;;;;;5111386;28;20387;-71
2022/01/08 05:30:00;;;;;;;0.40;0.20;;;3.70;99.90;;;;;;5111126;28;20381;-72
2022/01/08 05:32:26;;;;;;;0.40;0.20;;;3.70;99.90;;;;;;5111833;28;20726;-71
2022/01/08 05:34:52;;;;;;;0.40;0.20;;;3.70;99.90;;;;;;5111055;28;20388;-71
2022/01/08 05:37:19;;;;;;;0.40;0.30;;;3.70;99.90;;;;;;5110890;28;20814;-71
2022/01/08 05:39:46;;;;;;;0.40;0.20;;;3.70;99.90;;;;;;5111073;28;20438;-72
2022/01/08 05:42:12;;;;;;;0.40;0.20;;;3.70;99.90;;;;;;5093168;28;20412;-71
2022/01/08 05:44:38;;;;;;;0.40;0.20;;;3.70;99.90;;;;;;5122955;27;20421;-72
2022/01/08 05:47:04;;;;;;;0.40;0.20;;;3.60;99.90;;;;;;5130466;27;20800;-72
2022/01/08 05:49:30;;;;;;;0.40;0.20;;;3.70;99.90;;;;;;5132031;27;20788;-72
2022/01/08 05:51:56;;;;;;;0.40;0.20;;;3.60;99.90;;;;;;5130619;27;20442;-73
2022/01/08 05:54:21;;;;;;;0.40;0.20;;;3.70;99.90;;;;;;5131593;27;20379;-72
2022/01/08 05:56:49;;;;;;;0.40;0.20;;;3.70;99.90;;;;;;5131368;27;20393;-71
2022/01/08 05:59:15;;;;;;;0.40;0.20;;;3.60;99.90;;;;;;5130914;27;20379;-71
2022/01/08 06:01:43;;;;;;;0.40;0.20;;;3.60;99.90;;;;;;5113355;28;20481;-72
2022/01/08 06:04:08;;;;;;;0.40;0.20;;;3.60;99.90;;;;;;5130207;28;20389;-73
2022/01/08 06:06:35;;;;;;;0.40;0.20;;;3.60;99.90;;;;;;5131591;28;20382;-72
2022/01/08 06:09:02;;;;;;;0.40;0.20;;;3.50;99.90;;;;;;5131541;28;20402;-72
2022/01/08 06:11:28;;;;;;;0.40;0.20;;;3.40;99.90;;;;;;5130261;28;20432;-72
2022/01/08 06:13:54;;;;;;;0.40;0.20;;;3.40;99.90;;;;;;5131394;28;20387;-73
2022/01/08 06:16:19;;;;;;;0.40;0.20;;;3.40;99.90;;;;;;5130968;28;20708;-73
2022/01/08 06:18:45;;;;;;;0.40;0.20;;;3.30;99.90;;;;;;5131171;28;20452;-73
2022/01/08 06:21:11;;;;;;;0.40;0.20;;;3.40;99.90;;;;;;5131171;28;20431;-72
2022/01/08 06:23:37;;;;;;;0.40;0.20;;;3.40;99.90;;;;;;5130771;28;20375;-73
2022/01/08 06:26:05;;;;;;;0.40;0.20;;;3.50;99.90;;;;;;5131475;28;20859;-73
2022/01/08 06:28:30;;;;;;;0.40;0.20;;;3.40;99.90;;;;;;5130550;28;20742;-73
2022/01/08 06:30:56;;;;;;;0.40;0.20;;;3.40;99.90;;;;;;5131809;28;20374;-72
2022/01/08 06:33:22;;;;;;;0.40;0.20;;;3.40;99.90;;;;;;5132621;27;20854;-72
2022/01/08 06:35:48;;;;;;;0.40;0.20;;;3.30;99.90;;;;;;5134788;27;20387;-72
2022/01/08 06:38:15;;;;;;;0.40;0.20;;;3.30;99.90;;;;;;5135476;27;20431;-72
2022/01/08 06:40:41;;;;;;;0.40;0.20;;;3.30;99.90;;;;;;5134760;27;20493;-73
2022/01/08 06:43:07;;;;;;;0.40;0.20;;;3.30;99.90;;;;;;5135449;27;20366;-73
2022/01/08 06:45:32;;;;;;;0.40;0.20;;;3.20;99.90;;;;;;5115175;27;20384;-72
2022/01/08 06:47:58;;;;;;;0.40;0.20;;;3.20;99.90;;;;;;5095509;28;21069;-72
2022/01/08 06:50:23;;;;;;;0.40;0.20;;;3.20;99.90;;;;;;5114788;28;20416;-73
2022/01/08 06:52:49;;;;;;;0.40;0.20;;;3.20;99.90;;;;;;5113842;28;20733;-73
2022/01/08 06:55:15;;;;;;;0.40;0.20;;;3.10;99.90;;;;;;5114964;28;20395;-72
2022/01/08 06:57:43;;;;;;;0.40;0.20;;;3.10;99.90;;;;;;5114287;28;20812;-73
2022/01/08 07:00:09;;;;;;;0.40;0.20;;;3.10;99.90;;;;;;5113959;28;20437;-73
2022/01/08 07:02:35;;;;;;;0.40;0.20;;;3.10;99.90;;;;;;5114153;28;20734;-72
2022/01/08 07:05:00;;;;;;;0.40;0.40;;;3.10;99.90;;;;;;5113243;28;20396;-73
2022/01/08 07:07:27;;;;;;;0.40;0.20;;;3.10;99.90;;;;;;5114593;28;20392;-72
2022/01/08 07:09:52;;;;;;;0.40;0.20;;;3.10;99.90;;;;;;5114181;28;20400;-72
2022/01/08 07:12:18;;;;;;;0.40;0.20;;;3.10;99.90;;;;;;5113163;28;20487;-72
2022/01/08 07:14:44;;;;;;;0.40;0.30;;;3.10;99.90;;;;;;5113933;28;20663;-72
2022/01/08 07:17:09;;;;;;;0.40;0.20;;;3.10;99.90;;;;;;5113254;28;20573;-73
2022/01/08 07:19:35;;;;;;;0.40;0.20;;;3.10;99.90;;;;;;5114193;28;20709;-73
2022/01/08 07:22:01;;;;;;;0.40;0.20;;;3.10;99.90;;;;;;5114212;28;20685;-73
2022/01/08 07:24:26;;;;;;;0.40;0.20;;;3.10;99.90;;;;;;5113091;28;20377;-73
2022/01/08 07:26:52;;;;;;;0.40;0.20;;;3.10;99.90;;;;;;5095853;28;20532;-73
2022/01/08 07:29:18;;;;;;;0.60;0.60;;;3.20;99.90;;;;;;5113089;28;20400;-72
2022/01/08 07:31:43;;;;;;;1.30;0.90;;;3.20;99.90;;;;;;5095791;28;20718;-73
2022/01/08 07:34:09;;;;;;;0.40;0.20;;;3.10;99.90;;;;;;5113410;28;20807;-73
2022/01/08 07:36:34;;;;;;;0.40;0.20;;;3.10;99.90;;;;;;5112658;28;20388;-71
2022/01/08 07:39:00;;;;;;;0.40;0.20;;;3.10;99.90;;;;;;5113467;28;20399;-71
2022/01/08 07:41:26;;;;;;;0.40;0.20;;;3.20;99.90;;;;;;5094347;28;20385;-72
2022/01/08 07:43:52;;;;;;;0.40;0.20;;;3.20;99.90;;;;;;5118383;27;20375;-71
2022/01/08 07:46:17;;;;;;;0.40;0.20;;;3.10;99.90;;;;;;5133574;27;20727;-72
2022/01/08 07:48:43;;;;;;;0.40;0.20;;;3.10;99.90;;;;;;5133127;27;20553;-72
2022/01/08 07:51:09;;;;;;;0.40;0.20;;;3.20;99.90;;;;;;5134064;27;20379;-72
2022/01/08 07:53:35;;;;;;;0.40;0.30;;;3.30;99.90;;;;;;5132928;27;20382;-72
2022/01/08 07:56:01;;;;;;;0.40;0.30;;;3.10;99.90;;;;;;5115289;27;20481;-72
2022/01/08 07:58:26;;;;;;;0.40;0.20;;;3.10;99.90;;;;;;5133520;27;20390;-72
2022/01/08 08:00:53;;;;;;;0.40;0.20;;;3.10;99.90;;;;;;5132777;27;20385;-72
2022/01/08 08:03:19;;;;;;;0.40;0.20;;;3.10;99.90;;;;;;5133790;27;20382;-72
2022/01/08 08:05:46;;;;;;;0.40;0.20;;;3.20;99.90;;;;;;5114335;27;20844;-72
2022/01/08 08:08:16;;;;;;;0.40;0.20;;;3.20;99.90;;;;;;5133588;27;20401;-72
2022/01/08 08:10:42;;;;;;;0.40;0.20;;;3.20;99.90;;;;;;5132836;27;20395;-72
2022/01/08 08:13:08;;;;;;;0.40;0.20;;;3.30;99.90;;;;;;5114711;27;20867;-72
2022/01/08 08:15:33;;;;;;;0.40;0.20;;;3.30;99.90;;;;;;5133556;27;20373;-72
2022/01/08 08:17:59;;;;;;;0.40;0.20;;;3.40;99.90;;;;;;5113776;27;21094;-72
2022/01/08 08:20:25;;;;;;;0.40;0.20;;;3.40;99.90;;;;;;5114601;27;20440;-72
2022/01/08 08:22:50;;;;;;;0.40;0.20;;;3.50;99.90;;;;;;5132472;27;20419;-72
2022/01/08 08:25:16;;;;;;;0.40;0.20;;;3.50;99.90;;;;;;5133261;27;20406;-72
2022/01/08 08:27:43;;;;;;;0.40;0.20;;;3.50;99.90;;;;;;5133408;27;20404;-71
2022/01/08 08:30:10;;;;;;;0.40;0.20;;;3.50;99.90;;;;;;5132416;27;20374;-72
2022/01/08 08:32:36;;;;;;;0.40;0.20;;;3.50;99.90;;;;;;5132788;27;20373;-72
2022/01/08 08:35:02;;;;;;;0.40;0.20;;;3.50;99.90;;;;;;5113576;27;20394;-72
2022/01/08 08:37:27;;;;;;;0.40;0.30;;;3.50;99.90;;;;;;5133327;27;20394;-72
2022/01/08 08:39:53;;;;;;;0.40;0.20;;;3.60;99.90;;;;;;5132406;27;20386;-72
2022/01/08 08:42:19;;;;;;;0.40;0.20;;;3.60;99.90;;;;;;5132056;27;20367;-72
2022/01/08 08:44:44;;;;;;;0.40;0.20;;;3.50;99.90;;;;;;5132909;27;20979;-71
2022/01/08 08:47:10;;;;;;;0.40;0.40;;;3.50;99.90;;;;;;5132028;27;20367;-72
2022/01/08 08:49:36;;;;;;;0.40;0.20;;;3.60;99.90;;;;;;5132755;27;20402;-72
2022/01/08 08:52:02;;;;;;;0.40;0.20;;;3.60;99.90;;;;;;5132265;27;20382;-72
2022/01/08 08:54:28;;;;;;;0.40;0.20;;;3.60;99.90;;;;;;5132259;27;20445;-72
2022/01/08 08:56:54;;;;;;;0.40;0.20;;;3.60;99.90;;;;;;5132704;27;20461;-72
2022/01/08 08:59:20;;;;;;;0.40;0.20;;;3.60;99.90;;;;;;5131830;27;20383;-72
2022/01/08 09:01:45;;;;;;;0.40;0.20;;;3.60;99.90;;;;;;5132623;27;20375;-72
2022/01/08 09:04:11;;;;;;;0.40;0.20;;;3.70;99.90;;;;;;5131971;27;20412;-72
2022/01/08 09:06:37;;;;;;;0.40;0.20;;;3.70;99.90;;;;;;5131699;27;20402;-72
2022/01/08 09:09:03;;;;;;;0.40;0.30;;;3.60;99.90;;;;;;5131814;27;20490;-72
2022/01/08 09:11:29;;;;;;;0.40;0.30;;;3.70;99.90;;;;;;5131679;27;20560;-72
2022/01/08 09:13:55;;;;;;;0.40;0.20;;;3.70;99.90;;;;;;5132272;27;20465;-72
2022/01/08 09:16:20;;;;;;;0.40;0.20;;;3.70;99.90;;;;;;5131742;27;20448;-72
2022/01/08 09:18:46;;;;;;;0.40;0.20;;;3.60;99.90;;;;;;5132391;27;20839;-72
2022/01/08 09:21:13;;;;;;;0.40;0.30;;;3.60;99.90;;;;;;5132089;27;20932;-72
2022/01/08 09:23:39;;;;;;;0.40;0.20;;;3.60;99.90;;;;;;5131817;27;20432;-72
2022/01/08 09:26:05;;;;;;;0.40;0.20;;;3.50;99.90;;;;;;5132092;27;20819;-72
2022/01/08 09:28:31;;;;;;;0.40;0.20;;;3.60;99.90;;;;;;5130673;27;20441;-72
2022/01/08 09:30:58;;;;;;;0.40;0.20;;;3.50;99.90;;;;;;5131775;27;20444;-72
2022/01/08 09:33:25;;;;;;;0.40;0.20;;;3.60;99.90;;;;;;5132156;27;20378;-72
2022/01/08 09:35:52;;;;;;;0.40;0.20;;;3.70;99.90;;;;;;5131111;27;20382;-72
2022/01/08 09:38:18;;;;;;;0.40;0.20;;;3.70;99.90;;;;;;5131830;27;20465;-72
2022/01/08 09:40:44;;;;;;;0.40;0.20;;;3.70;99.90;;;;;;5131234;27;20466;-72
2022/01/08 09:43:10;;;;;;;0.40;0.28;;;3.80;99.90;;;;;;5131732;27;20510;-72
2022/01/08 09:45:35;;;;;;;0.40;0.20;;;3.90;99.90;;;;;;5111509;28;20891;-72
2022/01/08 09:48:01;;;;;;;0.40;0.20;;;3.90;99.90;;;;;;5110575;28;20380;-72
2022/01/08 09:50:27;;;;;;;0.40;0.20;;;4.00;99.90;;;;;;5110780;28;20384;-72
2022/01/08 09:52:57;;;;;;;0.40;0.20;;;4.00;99.90;;;;;;5110500;28;20376;-73
2022/01/08 09:55:25;;;;;;;0.40;0.20;;;4.00;99.90;;;;;;5092911;28;20722;-72
2022/01/08 09:57:51;;;;;;;0.40;0.20;;;4.00;99.90;;;;;;5110267;28;20385;-73
2022/01/08 10:00:19;;;;;;;0.40;0.20;;;4.00;99.90;;;;;;5110912;28;20847;-72
2022/01/08 10:02:44;;;;;;;0.40;0.20;;;4.10;99.90;;;;;;5111274;28;20462;-72
2022/01/08 10:05:13;;;;;;;0.40;0.30;;;4.10;99.90;;;;;;5110276;28;20419;-72
2022/01/08 10:07:40;;;;;;;0.40;0.20;;;4.20;99.90;;;;;;5112013;28;20933;-72
2022/01/08 10:10:17;;;;;;;0.40;0.20;;;4.30;99.90;;;;;;5114639;28;20423;-72
2022/01/08 10:12:54;;;;;;;0.40;0.20;;;4.40;99.90;;;;;;5115401;28;20383;-72
2022/01/08 10:18:27;;;;;;;0.40;0.20;;;4.40;99.90;;;;;;5114685;28;20375;-72
2022/01/08 10:20:55;;;;;;;0.40;0.20;;;4.70;99.90;;;;;;5115307;28;20388;-72
2022/01/08 10:23:31;;;;;;;0.40;0.20;;;4.90;99.90;;;;;;5114196;28;20407;-72
2022/01/08 10:26:02;;;;;;;0.40;0.20;;;4.90;99.90;;;;;;5114729;28;20796;-72
2022/01/08 10:28:44;;;;;;;0.40;0.30;;;4.70;99.60;;;;;;5114657;28;20408;-72
2022/01/08 10:31:23;;;;;;;0.40;0.20;;;4.60;99.50;;;;;;5114274;28;20448;-72
2022/01/08 10:34:12;;;;;;;0.40;0.20;;;4.50;99.00;;;;;;5114898;28;20394;-72
2022/01/08 10:36:42;;;;;;;0.40;0.20;;;4.70;98.80;;;;;;5114787;28;20396;-72
2022/01/08 10:39:18;;;;;;;0.40;0.20;;;4.50;98.90;;;;;;5115156;28;20394;-72
2022/01/08 10:41:46;;;;;;;0.40;0.30;;;4.40;99.90;;;;;;5114586;28;20437;-72
2022/01/08 10:44:25;;;;;;;0.40;0.20;;;4.40;99.90;;;;;;5122462;27;20839;-73
2022/01/08 10:46:59;;;;;;;0.40;0.20;;;4.50;99.90;;;;;;5135316;27;20869;-72
2022/01/08 10:49:50;;;;;;;0.40;0.20;;;4.40;99.90;;;;;;5134462;27;20406;-72
2022/01/08 10:52:19;;;;;;;0.40;0.20;;;4.50;99.90;;;;;;5120257;27;20403;-72
2022/01/08 10:54:55;;;;;;;0.40;0.20;;;4.50;99.90;;;;;;5135148;27;20378;-72
2022/01/08 10:57:29;;;;;;;0.40;0.20;;;4.30;99.90;;;;;;5134819;27;20482;-74
2022/01/08 10:59:56;;;;;;;0.40;0.20;;;4.50;99.90;;;;;;5135323;27;20374;-71
2022/01/08 11:02:26;;;;;;;0.40;0.20;;;4.30;99.90;;;;;;5134803;27;20438;-72
2022/01/08 11:04:53;;;;;;;0.40;0.20;;;4.20;99.90;;;;;;5134778;27;20735;-72
2022/01/08 11:07:26;;;;;;;0.40;0.20;;;4.20;99.90;;;;;;5134421;27;20458;-72
2022/01/08 11:09:54;;;;;;;0.40;0.20;;;4.10;99.90;;;;;;5134352;27;20485;-73
2022/01/08 11:12:24;;;;;;;0.40;0.20;;;4.20;99.90;;;;;;5116048;27;20501;-72
2022/01/08 11:17:38;;;;;;;0.40;0.20;;;4.40;99.40;;;;;;5134746;27;20889;-72
2022/01/08 11:20:16;;;;;;;0.40;0.20;;;4.60;98.90;;;;;;5134493;27;20402;-72
2022/01/08 11:22:48;;;;;;;0.40;0.20;;;4.90;98.80;;;;;;5133836;27;20421;-73
2022/01/08 11:25:19;;;;;;;0.40;0.20;;;5.20;97.60;;;;;;5134280;27;20447;-72
2022/01/08 11:28:10;;;;;;;0.40;0.20;;;5.30;96.20;;;;;;5133752;27;20371;-73
2022/01/08 11:30:38;;;;;;;0.40;0.30;;;5.90;95.00;;;;;;5134219;27;20391;-73
2022/01/08 11:33:11;;;;;;;0.40;0.28;;;5.70;93.60;;;;;;5133346;27;21079;-73
2022/01/08 11:35:38;;;;;;;0.40;0.20;;;5.30;94.50;;;;;;5134351;27;20378;-73
2022/01/08 11:38:10;;;;;;;0.40;0.20;;;5.00;94.50;;;;;;5133197;27;20433;-72
2022/01/08 11:40:41;;;;;;;0.40;0.20;;;5.10;95.80;;;;;;5134097;27;20386;-72
2022/01/08 11:43:09;;;;;;;0.40;0.20;;;5.00;95.10;;;;;;5133361;27;20477;-72
2022/01/08 11:45:40;;;;;;;0.40;0.20;;;4.90;95.50;;;;;;5134330;27;20454;-73
2022/01/08 11:48:09;;;;;;;0.40;0.20;;;5.10;95.10;;;;;;5133370;27;20500;-73
2022/01/08 11:50:37;;;;;;;0.40;0.20;;;5.00;94.90;;;;;;5134442;27;20731;-72
2022/01/08 11:53:23;;;;;;;0.40;0.20;;;4.90;95.60;;;;;;5114943;27;20397;-73
2022/01/08 11:55:51;;;;;;;0.40;0.20;;;4.90;96.00;;;;;;5133847;27;20382;-72
2022/01/08 11:58:19;;;;;;;0.40;0.25;;;5.10;95.20;;;;;;5133159;27;20371;-73
2022/01/08 12:00:55;;;;;;;0.40;0.20;;;5.20;94.60;;;;;;5122590;27;20383;-73
2022/01/08 12:03:31;;;;;;;0.40;0.30;;;5.00;94.50;;;;;;5120851;27;20601;-73
2022/01/08 12:06:16;;;;;;;0.40;0.20;;;4.80;94.40;;;;;;5119960;27;20437;-72
2022/01/08 12:09:07;;;;;;;0.40;0.20;;;4.70;94.90;;;;;;5129702;27;20443;-73
2022/01/08 12:11:33;;;;;;;0.40;0.20;;;4.80;95.00;;;;;;5094364;27;20436;-74
2022/01/08 12:14:16;;;;;;;0.40;0.22;;;4.90;95.10;;;;;;5126903;27;20438;-74
2022/01/08 12:16:44;;;;;;;0.40;0.20;;;4.80;95.00;;;;;;5116008;27;20391;-73
2022/01/08 12:19:26;;;;;;;0.40;0.20;;;4.90;95.30;;;;;;5132401;27;20459;-74
2022/01/08 12:21:52;;;;;;;0.40;0.20;;;4.80;94.90;;;;;;5120643;27;20376;-73
2022/01/08 12:24:26;;;;;;;0.40;0.20;;;5.00;94.80;;;;;;5107819;27;20451;-73
2022/01/08 12:26:54;;;;;;;0.40;0.20;;;5.10;95.40;;;;;;5116127;27;20415;-73
2022/01/08 12:29:41;;;;;;;0.40;0.20;;;5.50;95.30;;;;;;5127806;27;20407;-74
2022/01/08 12:32:36;;;;;;;0.40;0.20;;;5.70;94.90;;;;;;5122671;27;20403;-73
2022/01/08 12:35:37;;;;;;;0.40;0.20;;;5.70;94.10;;;;;;5115924;27;20373;-74
2022/01/08 12:38:06;;;;;;;0.40;0.30;;;5.70;94.40;;;;;;5122577;27;20381;-73
2022/01/08 12:40:35;;;;;;;0.40;0.30;;;6.00;93.60;;;;;;5126117;27;20383;-73
2022/01/08 12:43:16;;;;;;;0.40;0.20;;;5.90;93.90;;;;;;5115290;27;20385;-73
2022/01/08 12:45:43;;;;;;;0.40;0.20;;;6.10;93.00;;;;;;5118707;27;20379;-72
2022/01/08 12:48:09;;;;;;;0.40;0.20;;;5.90;93.20;;;;;;5120695;27;20960;-73
2022/01/08 12:50:38;;;;;;;0.40;0.20;;;5.60;93.70;;;;;;5122303;27;20382;-72
2022/01/08 12:53:07;;;;;;;0.40;0.20;;;5.50;94.20;;;;;;5119740;27;20422;-71
2022/01/08 12:55:49;;;;;;;0.40;0.20;;;5.40;94.30;;;;;;5111372;28;20388;-72
2022/01/08 12:58:30;;;;;;;0.40;0.20;;;5.40;94.50;;;;;;5111824;28;20463;-72
2022/01/08 13:01:19;;;;;;;0.40;0.20;;;5.40;94.60;;;;;;5113580;27;20403;-72
2022/01/08 13:03:51;;;;;;;0.40;0.30;;;5.30;95.10;;;;;;5127751;27;20410;-72
2022/01/08 13:06:17;;;;;;;0.40;0.20;;;5.40;95.00;;;;;;5111995;28;21026;-72
2022/01/08 13:08:46;;;;;;;0.40;0.20;;;5.30;94.90;;;;;;5121007;27;20497;-71
2022/01/08 13:11:17;;;;;;;0.40;0.20;;;5.40;95.40;;;;;;5104376;27;20394;-71
2022/01/08 13:13:49;;;;;;;0.40;0.27;;;5.60;94.90;;;;;;5112264;27;20397;-72
2022/01/08 13:16:17;;;;;;;0.40;0.20;;;5.30;95.40;;;;;;5119151;27;20848;-72
2022/01/08 13:18:54;;;;;;;0.40;0.20;;;5.50;95.10;;;;;;5117091;27;20381;-73
2022/01/08 13:21:22;;;;;;;0.40;0.20;;;5.60;95.10;;;;;;5121647;27;20362;-73
2022/01/08 13:23:50;;;;;;;0.40;0.20;;;5.90;95.00;;;;;;5119614;27;20439;-73
2022/01/08 13:26:26;;;;;;;0.50;0.50;;;5.80;94.40;;;;;;5118599;27;20502;-72
2022/01/08 13:28:55;;;;;;;0.40;0.20;;;5.70;95.10;;;;;;5117896;27;20463;-73